sensor_id;sensor_type;location;lat;lon;timestamp;temperature;humidity
8402;DHT22;4238;48.404;9.498;2023-03-31T00:00:26;9.50;1.00
8402;DHT22;4238;48.404;9.498;2023-03-31T00:02:53;9.40;1.00
8402;DHT22;4238;48.404;9.498;2023-03-31T00:05:21;9.40;1.00
8402;DHT22;4238;48.404;9.498;2023-03-31T00:07:53;9.40;1.00
8402;DHT22;4238;48.404;9.498;2023-03-31T00:10:25;9.40;1.00
8402;DHT22;4238;48.404;9.498;2023-03-31T00:12:52;9.40;1.00
8402;DHT22;4238;48.404;9.498;2023-03-31T00:15:21;9.30;1.00
8402;DHT22;4238;48.404;9.498;2023-03-31T00:17:48;9.30;1.00
8402;DHT22;4238;48.404;9.498;2023-03-31T00:20:15;9.20;1.00
8402;DHT22;4238;48.404;9.498;2023-03-31T00:22:42;9.10;1.00
8402;DHT22;4238;48.404;9.498;2023-03-31T00:25:11;9.10;1.00
8402;DHT22;4238;48.404;9.498;2023-03-31T00:27:40;9.10;1.00
8402;DHT22;4238;48.404;9.498;2023-03-31T00:30:09;9.00;1.00
8402;DHT22;4238;48.404;9.498;2023-03-31T00:32:38;9.10;1.00
8402;DHT22;4238;48.404;9.498;2023-03-31T00:35:05;9.10;1.00
8402;DHT22;4238;48.404;9.498;2023-03-31T00:37:33;9.20;1.00
8402;DHT22;4238;48.404;9.498;2023-03-31T00:40:00;9.20;1.00
8402;DHT22;4238;48.404;9.498;2023-03-31T00:42:27;9.20;1.00
8402;DHT22;4238;48.404;9.498;2023-03-31T00:45:22;9.30;1.00
8402;DHT22;4238;48.404;9.498;2023-03-31T00:47:53;9.30;1.00
8402;DHT22;4238;48.404;9.498;2023-03-31T00:50:22;9.40;1.00
8402;DHT22;4238;48.404;9.498;2023-03-31T00:52:54;9.40;1.00
8402;DHT22;4238;48.404;9.498;2023-03-31T00:55:26;9.40;1.00
8402;DHT22;4238;48.404;9.498;2023-03-31T00:57:54;9.50;1.00
8402;DHT22;4238;48.404;9.498;2023-03-31T01:00:22;9.50;1.00
8402;DHT22;4238;48.404;9.498;2023-03-31T01:02:54;9.50;1.00
8402;DHT22;4238;48.404;9.498;2023-03-31T01:05:26;9.50;1.00
8402;DHT22;4238;48.404;9.498;2023-03-31T01:07:53;9.50;1.00
8402;DHT22;4238;48.404;9.498;2023-03-31T01:10:21;9.60;1.00
8402;DHT22;4238;48.404;9.498;2023-03-31T01:12:50;9.60;1.00
8402;DHT22;4238;48.404;9.498;2023-03-31T01:15:18;9.60;1.00
8402;DHT22;4238;48.404;9.498;2023-03-31T01:17:45;9.50;1.00
8402;DHT22;4238;48.404;9.498;2023-03-31T01:20:20;9.50;1.00
8402;DHT22;4238;48.404;9.498;2023-03-31T01:26:19;9.50;1.00
8402;DHT22;4238;48.404;9.498;2023-03-31T01:28:53;9.50;1.00
8402;DHT22;4238;48.404;9.498;2023-03-31T01:37:48;9.50;1.00
8402;DHT22;4238;48.404;9.498;2023-03-31T01:40:38;9.40;1.00
8402;DHT22;4238;48.404;9.498;2023-03-31T01:43:12;9.40;1.00
8402;DHT22;4238;48.404;9.498;2023-03-31T01:45:52;9.50;1.00
8402;DHT22;4238;48.404;9.498;2023-03-31T01:48:27;9.50;1.00
8402;DHT22;4238;48.404;9.498;2023-03-31T01:51:04;9.50;1.00
8402;DHT22;4238;48.404;9.498;2023-03-31T01:53:35;9.50;1.00
8402;DHT22;4238;48.404;9.498;2023-03-31T01:56:12;9.50;1.00
8402;DHT22;4238;48.404;9.498;2023-03-31T01:58:42;9.50;1.00
8402;DHT22;4238;48.404;9.498;2023-03-31T02:01:15;9.50;1.00
8402;DHT22;4238;48.404;9.498;2023-03-31T02:03:47;9.50;1.00
8402;DHT22;4238;48.404;9.498;2023-03-31T02:06:19;9.50;1.00
8402;DHT22;4238;48.404;9.498;2023-03-31T02:08:51;9.40;10.60
8402;DHT22;4238;48.404;9.498;2023-03-31T02:11:22;9.40;17.60
8402;DHT22;4238;48.404;9.498;2023-03-31T02:13:52;9.40;22.80
8402;DHT22;4238;48.404;9.498;2023-03-31T02:16:24;9.40;19.10
8402;DHT22;4238;48.404;9.498;2023-03-31T02:18:54;9.30;30.20
8402;DHT22;4238;48.404;9.498;2023-03-31T02:21:27;9.30;35.70
8402;DHT22;4238;48.404;9.498;2023-03-31T02:23:54;9.20;31.60
8402;DHT22;4238;48.404;9.498;2023-03-31T02:26:28;9.20;42.60
8402;DHT22;4238;48.404;9.498;2023-03-31T02:28:57;9.10;42.90
8402;DHT22;4238;48.404;9.498;2023-03-31T02:31:27;9.10;50.20
8402;DHT22;4238;48.404;9.498;2023-03-31T02:33:55;9.10;51.60
8402;DHT22;4238;48.404;9.498;2023-03-31T02:36:22;9.00;64.00
8402;DHT22;4238;48.404;9.498;2023-03-31T02:38:52;9.00;73.00
8402;DHT22;4238;48.404;9.498;2023-03-31T02:41:21;8.90;88.50
8402;DHT22;4238;48.404;9.498;2023-03-31T02:43:49;8.90;92.90
8402;DHT22;4238;48.404;9.498;2023-03-31T02:46:16;8.90;90.90
8402;DHT22;4238;48.404;9.498;2023-03-31T02:48:45;8.80;95.60
8402;DHT22;4238;48.404;9.498;2023-03-31T02:51:36;8.80;96.40
8402;DHT22;4238;48.404;9.498;2023-03-31T02:57:19;8.90;98.50
8402;DHT22;4238;48.404;9.498;2023-03-31T03:00:00;8.80;99.90
8402;DHT22;4238;48.404;9.498;2023-03-31T03:02:38;8.80;99.40
8402;DHT22;4238;48.404;9.498;2023-03-31T03:05:22;8.60;99.90
8402;DHT22;4238;48.404;9.498;2023-03-31T03:07:57;8.30;99.90
8402;DHT22;4238;48.404;9.498;2023-03-31T03:10:34;8.30;99.90
8402;DHT22;4238;48.404;9.498;2023-03-31T03:13:08;8.10;99.90
8402;DHT22;4238;48.404;9.498;2023-03-31T03:15:44;8.00;99.90
8402;DHT22;4238;48.404;9.498;2023-03-31T03:18:13;7.80;99.90
8402;DHT22;4238;48.404;9.498;2023-03-31T03:20:42;7.70;99.90
8402;DHT22;4238;48.404;9.498;2023-03-31T03:23:13;7.80;99.90
8402;DHT22;4238;48.404;9.498;2023-03-31T03:25:40;7.80;99.90
8402;DHT22;4238;48.404;9.498;2023-03-31T03:28:07;7.90;99.90
8402;DHT22;4238;48.404;9.498;2023-03-31T03:30:34;7.90;99.90
8402;DHT22;4238;48.404;9.498;2023-03-31T03:33:02;8.00;99.90
8402;DHT22;4238;48.404;9.498;2023-03-31T03:35:30;8.10;99.90
8402;DHT22;4238;48.404;9.498;2023-03-31T03:37:57;8.20;99.90
8402;DHT22;4238;48.404;9.498;2023-03-31T03:40:24;8.10;99.90
8402;DHT22;4238;48.404;9.498;2023-03-31T03:42:51;8.10;99.90
8402;DHT22;4238;48.404;9.498;2023-03-31T03:45:18;8.00;99.90
8402;DHT22;4238;48.404;9.498;2023-03-31T03:47:45;8.10;99.90
8402;DHT22;4238;48.404;9.498;2023-03-31T03:50:14;8.10;99.90
8402;DHT22;4238;48.404;9.498;2023-03-31T03:52:41;8.10;99.90
8402;DHT22;4238;48.404;9.498;2023-03-31T03:55:09;8.10;99.90
8402;DHT22;4238;48.404;9.498;2023-03-31T03:57:36;8.10;99.90
8402;DHT22;4238;48.404;9.498;2023-03-31T04:00:04;7.90;99.90
8402;DHT22;4238;48.404;9.498;2023-03-31T04:02:34;7.70;99.90
8402;DHT22;4238;48.404;9.498;2023-03-31T04:05:01;7.70;99.90
8402;DHT22;4238;48.404;9.498;2023-03-31T04:07:30;7.80;99.90
8402;DHT22;4238;48.404;9.498;2023-03-31T04:09:56;7.70;99.90
8402;DHT22;4238;48.404;9.498;2023-03-31T04:12:23;7.70;99.90
8402;DHT22;4238;48.404;9.498;2023-03-31T04:14:50;7.80;99.90
8402;DHT22;4238;48.404;9.498;2023-03-31T04:17:17;7.80;99.90
8402;DHT22;4238;48.404;9.498;2023-03-31T04:19:51;7.70;99.90
8402;DHT22;4238;48.404;9.498;2023-03-31T04:22:17;7.80;99.90
8402;DHT22;4238;48.404;9.498;2023-03-31T04:24:46;7.80;99.90
8402;DHT22;4238;48.404;9.498;2023-03-31T04:27:17;7.80;99.90
8402;DHT22;4238;48.404;9.498;2023-03-31T04:29:45;7.80;99.90
8402;DHT22;4238;48.404;9.498;2023-03-31T04:32:19;7.80;99.90
8402;DHT22;4238;48.404;9.498;2023-03-31T04:34:46;7.80;99.90
8402;DHT22;4238;48.404;9.498;2023-03-31T04:37:15;7.80;99.90
8402;DHT22;4238;48.404;9.498;2023-03-31T04:39:42;7.80;99.90
8402;DHT22;4238;48.404;9.498;2023-03-31T04:42:12;7.70;99.90
8402;DHT22;4238;48.404;9.498;2023-03-31T04:44:40;7.70;99.90
8402;DHT22;4238;48.404;9.498;2023-03-31T04:47:06;7.50;99.90
8402;DHT22;4238;48.404;9.498;2023-03-31T04:49:33;7.50;99.90
8402;DHT22;4238;48.404;9.498;2023-03-31T04:52:01;7.60;99.90
8402;DHT22;4238;48.404;9.498;2023-03-31T04:54:28;7.60;99.90
8402;DHT22;4238;48.404;9.498;2023-03-31T04:56:55;7.60;99.90
8402;DHT22;4238;48.404;9.498;2023-03-31T04:59:23;7.70;99.90
8402;DHT22;4238;48.404;9.498;2023-03-31T05:01:50;7.70;99.90
8402;DHT22;4238;48.404;9.498;2023-03-31T05:04:17;7.70;99.90
8402;DHT22;4238;48.404;9.498;2023-03-31T05:06:43;7.70;99.90
8402;DHT22;4238;48.404;9.498;2023-03-31T05:09:10;7.60;99.90
8402;DHT22;4238;48.404;9.498;2023-03-31T05:11:37;7.80;99.90
8402;DHT22;4238;48.404;9.498;2023-03-31T05:14:04;7.70;99.90
8402;DHT22;4238;48.404;9.498;2023-03-31T05:16:32;7.70;99.90
8402;DHT22;4238;48.404;9.498;2023-03-31T05:19:00;7.70;99.90
8402;DHT22;4238;48.404;9.498;2023-03-31T05:21:27;7.70;99.90
8402;DHT22;4238;48.404;9.498;2023-03-31T05:23:55;7.80;99.90
8402;DHT22;4238;48.404;9.498;2023-03-31T05:26:22;7.80;99.90
8402;DHT22;4238;48.404;9.498;2023-03-31T05:28:50;7.80;99.90
8402;DHT22;4238;48.404;9.498;2023-03-31T05:31:17;7.80;99.90
8402;DHT22;4238;48.404;9.498;2023-03-31T05:33:46;7.90;99.90
8402;DHT22;4238;48.404;9.498;2023-03-31T05:36:14;7.90;99.90
8402;DHT22;4238;48.404;9.498;2023-03-31T05:38:42;7.80;99.90
8402;DHT22;4238;48.404;9.498;2023-03-31T05:41:09;7.90;99.90
8402;DHT22;4238;48.404;9.498;2023-03-31T05:43:37;7.90;99.90
8402;DHT22;4238;48.404;9.498;2023-03-31T05:46:04;8.00;99.90
8402;DHT22;4238;48.404;9.498;2023-03-31T05:48:32;8.00;99.90
8402;DHT22;4238;48.404;9.498;2023-03-31T05:51:00;8.00;99.90
8402;DHT22;4238;48.404;9.498;2023-03-31T05:53:27;8.10;99.90
8402;DHT22;4238;48.404;9.498;2023-03-31T05:55:57;8.10;99.90
8402;DHT22;4238;48.404;9.498;2023-03-31T05:58:26;8.20;99.90
8402;DHT22;4238;48.404;9.498;2023-03-31T06:01:01;8.20;99.90
8402;DHT22;4238;48.404;9.498;2023-03-31T06:03:30;8.10;99.90
8402;DHT22;4238;48.404;9.498;2023-03-31T06:05:57;8.20;99.90
8402;DHT22;4238;48.404;9.498;2023-03-31T06:08:25;8.10;99.90
8402;DHT22;4238;48.404;9.498;2023-03-31T06:10:52;8.20;99.90
8402;DHT22;4238;48.404;9.498;2023-03-31T06:13:19;8.20;99.90
8402;DHT22;4238;48.404;9.498;2023-03-31T06:15:52;8.30;99.90
8402;DHT22;4238;48.404;9.498;2023-03-31T06:18:19;8.20;99.90
8402;DHT22;4238;48.404;9.498;2023-03-31T06:20:46;8.20;99.90
8402;DHT22;4238;48.404;9.498;2023-03-31T06:23:13;8.30;99.90
8402;DHT22;4238;48.404;9.498;2023-03-31T06:25:42;8.30;99.90
8402;DHT22;4238;48.404;9.498;2023-03-31T06:28:09;8.20;99.90
8402;DHT22;4238;48.404;9.498;2023-03-31T06:30:35;8.20;99.90
8402;DHT22;4238;48.404;9.498;2023-03-31T06:33:02;8.30;99.90
8402;DHT22;4238;48.404;9.498;2023-03-31T06:35:29;8.20;99.90
8402;DHT22;4238;48.404;9.498;2023-03-31T06:37:56;8.10;99.90
8402;DHT22;4238;48.404;9.498;2023-03-31T06:40:23;8.20;99.90
8402;DHT22;4238;48.404;9.498;2023-03-31T06:42:52;8.30;99.90
8402;DHT22;4238;48.404;9.498;2023-03-31T06:45:19;8.20;99.90
8402;DHT22;4238;48.404;9.498;2023-03-31T06:47:47;8.30;99.90
8402;DHT22;4238;48.404;9.498;2023-03-31T06:50:14;8.30;99.90
8402;DHT22;4238;48.404;9.498;2023-03-31T06:52:40;8.40;99.90
8402;DHT22;4238;48.404;9.498;2023-03-31T06:55:08;8.40;99.90
8402;DHT22;4238;48.404;9.498;2023-03-31T06:57:35;8.50;99.90
8402;DHT22;4238;48.404;9.498;2023-03-31T07:00:05;8.40;99.90
8402;DHT22;4238;48.404;9.498;2023-03-31T07:02:32;8.30;99.90
8402;DHT22;4238;48.404;9.498;2023-03-31T07:04:59;8.30;99.90
8402;DHT22;4238;48.404;9.498;2023-03-31T07:07:26;8.40;99.90
8402;DHT22;4238;48.404;9.498;2023-03-31T07:09:53;8.50;99.90
8402;DHT22;4238;48.404;9.498;2023-03-31T07:12:19;8.80;99.90
8402;DHT22;4238;48.404;9.498;2023-03-31T07:14:46;8.90;99.90
8402;DHT22;4238;48.404;9.498;2023-03-31T07:17:15;8.90;99.90
8402;DHT22;4238;48.404;9.498;2023-03-31T07:19:42;8.90;99.90
8402;DHT22;4238;48.404;9.498;2023-03-31T07:22:12;8.90;99.90
8402;DHT22;4238;48.404;9.498;2023-03-31T07:24:39;8.60;99.90
8402;DHT22;4238;48.404;9.498;2023-03-31T07:27:06;8.40;99.90
8402;DHT22;4238;48.404;9.498;2023-03-31T07:29:33;8.30;99.90
8402;DHT22;4238;48.404;9.498;2023-03-31T07:32:00;8.20;99.90
8402;DHT22;4238;48.404;9.498;2023-03-31T07:34:28;8.10;99.90
8402;DHT22;4238;48.404;9.498;2023-03-31T07:36:55;8.00;99.90
8402;DHT22;4238;48.404;9.498;2023-03-31T07:39:22;7.90;99.90
8402;DHT22;4238;48.404;9.498;2023-03-31T07:41:49;8.00;99.90
8402;DHT22;4238;48.404;9.498;2023-03-31T07:44:16;8.00;99.90
8402;DHT22;4238;48.404;9.498;2023-03-31T07:46:43;8.10;97.70
8402;DHT22;4238;48.404;9.498;2023-03-31T07:49:10;8.30;99.90
8402;DHT22;4238;48.404;9.498;2023-03-31T07:51:41;8.40;97.00
8402;DHT22;4238;48.404;9.498;2023-03-31T07:54:08;8.40;99.90
8402;DHT22;4238;48.404;9.498;2023-03-31T07:56:35;8.40;99.00
8402;DHT22;4238;48.404;9.498;2023-03-31T07:59:02;8.40;93.30
8402;DHT22;4238;48.404;9.498;2023-03-31T08:01:29;8.50;98.60
8402;DHT22;4238;48.404;9.498;2023-03-31T08:03:56;8.50;97.90
8402;DHT22;4238;48.404;9.498;2023-03-31T08:06:24;8.60;99.90
8402;DHT22;4238;48.404;9.498;2023-03-31T08:08:53;8.60;93.60
8402;DHT22;4238;48.404;9.498;2023-03-31T08:11:20;8.70;96.90
8402;DHT22;4238;48.404;9.498;2023-03-31T08:13:47;9.00;91.20
8402;DHT22;4238;48.404;9.498;2023-03-31T08:16:15;9.30;94.40
8402;DHT22;4238;48.404;9.498;2023-03-31T08:18:42;9.70;83.90
8402;DHT22;4238;48.404;9.498;2023-03-31T08:21:09;10.00;65.60
8402;DHT22;4238;48.404;9.498;2023-03-31T08:23:36;10.50;59.10
8402;DHT22;4238;48.404;9.498;2023-03-31T08:26:12;11.00;37.40
8402;DHT22;4238;48.404;9.498;2023-03-31T08:28:39;11.40;33.90
8402;DHT22;4238;48.404;9.498;2023-03-31T08:31:07;12.00;25.40
8402;DHT22;4238;48.404;9.498;2023-03-31T08:33:35;12.40;1.00
8402;DHT22;4238;48.404;9.498;2023-03-31T08:36:03;12.40;1.00
8402;DHT22;4238;48.404;9.498;2023-03-31T08:38:32;12.70;1.00
8402;DHT22;4238;48.404;9.498;2023-03-31T08:41:00;12.80;1.00
8402;DHT22;4238;48.404;9.498;2023-03-31T08:43:31;13.10;1.00
8402;DHT22;4238;48.404;9.498;2023-03-31T08:46:00;13.10;99.90
8402;DHT22;4238;48.404;9.498;2023-03-31T08:48:29;13.20;99.90
8402;DHT22;4238;48.404;9.498;2023-03-31T08:51:03;13.30;59.90
8402;DHT22;4238;48.404;9.498;2023-03-31T08:53:34;13.50;1.00
8402;DHT22;4238;48.404;9.498;2023-03-31T08:56:04;13.60;99.90
8402;DHT22;4238;48.404;9.498;2023-03-31T08:58:39;13.60;94.30
8402;DHT22;4238;48.404;9.498;2023-03-31T09:01:14;13.70;99.90
8402;DHT22;4238;48.404;9.498;2023-03-31T09:03:55;13.90;1.00
8402;DHT22;4238;48.404;9.498;2023-03-31T09:06:34;14.00;99.90
8402;DHT22;4238;48.404;9.498;2023-03-31T09:09:05;14.20;99.90
8402;DHT22;4238;48.404;9.498;2023-03-31T09:11:39;14.20;1.00
8402;DHT22;4238;48.404;9.498;2023-03-31T09:14:25;14.00;1.00
8402;DHT22;4238;48.404;9.498;2023-03-31T09:17:02;13.80;1.00
8402;DHT22;4238;48.404;9.498;2023-03-31T09:19:38;13.80;99.90
8402;DHT22;4238;48.404;9.498;2023-03-31T09:22:12;14.20;1.00
8402;DHT22;4238;48.404;9.498;2023-03-31T09:24:50;13.70;99.90
8402;DHT22;4238;48.404;9.498;2023-03-31T09:27:19;13.30;99.90
8402;DHT22;4238;48.404;9.498;2023-03-31T09:29:51;13.60;99.90
8402;DHT22;4238;48.404;9.498;2023-03-31T09:32:19;13.50;1.00
8402;DHT22;4238;48.404;9.498;2023-03-31T09:34:51;13.40;99.90
8402;DHT22;4238;48.404;9.498;2023-03-31T09:37:19;13.90;1.00
8402;DHT22;4238;48.404;9.498;2023-03-31T09:39:46;13.90;1.00
8402;DHT22;4238;48.404;9.498;2023-03-31T09:42:13;13.60;1.00
8402;DHT22;4238;48.404;9.498;2023-03-31T09:44:42;13.40;1.00
8402;DHT22;4238;48.404;9.498;2023-03-31T09:47:15;13.90;99.90
8402;DHT22;4238;48.404;9.498;2023-03-31T09:49:44;14.50;1.00
8402;DHT22;4238;48.404;9.498;2023-03-31T09:52:18;14.90;99.90
8402;DHT22;4238;48.404;9.498;2023-03-31T09:54:50;14.80;1.00
8402;DHT22;4238;48.404;9.498;2023-03-31T09:57:24;14.50;43.40
8402;DHT22;4238;48.404;9.498;2023-03-31T09:59:52;14.20;1.00
8402;DHT22;4238;48.404;9.498;2023-03-31T10:02:32;14.50;99.90
8402;DHT22;4238;48.404;9.498;2023-03-31T10:05:00;14.50;99.90
8402;DHT22;4238;48.404;9.498;2023-03-31T10:07:27;14.20;99.90
8402;DHT22;4238;48.404;9.498;2023-03-31T10:09:54;14.20;1.00
8402;DHT22;4238;48.404;9.498;2023-03-31T10:12:24;14.40;99.90
8402;DHT22;4238;48.404;9.498;2023-03-31T10:14:54;14.40;12.30
8402;DHT22;4238;48.404;9.498;2023-03-31T10:17:28;14.70;99.90
8402;DHT22;4238;48.404;9.498;2023-03-31T10:19:57;15.20;95.00
8402;DHT22;4238;48.404;9.498;2023-03-31T10:22:29;15.50;1.00
8402;DHT22;4238;48.404;9.498;2023-03-31T10:25:09;15.60;1.00
8402;DHT22;4238;48.404;9.498;2023-03-31T10:27:40;15.50;1.00
8402;DHT22;4238;48.404;9.498;2023-03-31T10:30:10;15.90;1.00
8402;DHT22;4238;48.404;9.498;2023-03-31T10:32:40;15.80;1.00
8402;DHT22;4238;48.404;9.498;2023-03-31T10:35:20;16.00;1.00
8402;DHT22;4238;48.404;9.498;2023-03-31T10:37:48;16.00;1.00
8402;DHT22;4238;48.404;9.498;2023-03-31T10:40:19;16.30;1.00
8402;DHT22;4238;48.404;9.498;2023-03-31T10:42:49;16.10;99.90
8402;DHT22;4238;48.404;9.498;2023-03-31T10:45:25;16.50;99.90
8402;DHT22;4238;48.404;9.498;2023-03-31T10:47:57;16.80;99.90
8402;DHT22;4238;48.404;9.498;2023-03-31T10:50:29;16.80;99.90
8402;DHT22;4238;48.404;9.498;2023-03-31T10:53:02;16.20;99.90
8402;DHT22;4238;48.404;9.498;2023-03-31T10:55:34;16.10;96.90
8402;DHT22;4238;48.404;9.498;2023-03-31T10:58:08;15.60;56.70
8402;DHT22;4238;48.404;9.498;2023-03-31T11:00:55;15.70;97.50
8402;DHT22;4238;48.404;9.498;2023-03-31T11:03:42;16.10;90.90
8402;DHT22;4238;48.404;9.498;2023-03-31T11:06:16;16.40;26.30
8402;DHT22;4238;48.404;9.498;2023-03-31T11:08:51;16.20;1.00
8402;DHT22;4238;48.404;9.498;2023-03-31T11:14:18;15.10;1.00
8402;DHT22;4238;48.404;9.498;2023-03-31T11:16:53;14.90;1.00
8402;DHT22;4238;48.404;9.498;2023-03-31T11:19:30;15.20;1.00
8402;DHT22;4238;48.404;9.498;2023-03-31T11:22:08;15.20;1.00
8402;DHT22;4238;48.404;9.498;2023-03-31T11:31:02;14.80;1.00
8402;DHT22;4238;48.404;9.498;2023-03-31T11:33:50;14.70;1.00
8402;DHT22;4238;48.404;9.498;2023-03-31T11:36:39;15.20;1.00
8402;DHT22;4238;48.404;9.498;2023-03-31T11:39:22;15.10;1.00
8402;DHT22;4238;48.404;9.498;2023-03-31T11:41:54;14.80;1.00
8402;DHT22;4238;48.404;9.498;2023-03-31T11:44:24;13.70;1.00
8402;DHT22;4238;48.404;9.498;2023-03-31T11:46:55;12.50;1.00
8402;DHT22;4238;48.404;9.498;2023-03-31T11:49:27;12.40;99.90
8402;DHT22;4238;48.404;9.498;2023-03-31T11:51:58;11.70;1.00
8402;DHT22;4238;48.404;9.498;2023-03-31T11:54:30;11.20;99.90
8402;DHT22;4238;48.404;9.498;2023-03-31T11:57:02;10.90;99.90
8402;DHT22;4238;48.404;9.498;2023-03-31T11:59:34;10.70;1.00
8402;DHT22;4238;48.404;9.498;2023-03-31T12:02:09;10.50;1.00
8402;DHT22;4238;48.404;9.498;2023-03-31T12:04:43;10.20;1.00
8402;DHT22;4238;48.404;9.498;2023-03-31T12:07:21;10.10;1.00
8402;DHT22;4238;48.404;9.498;2023-03-31T12:09:53;10.20;1.00
8402;DHT22;4238;48.404;9.498;2023-03-31T12:12:24;10.50;1.00
8402;DHT22;4238;48.404;9.498;2023-03-31T12:14:57;11.00;1.00
8402;DHT22;4238;48.404;9.498;2023-03-31T12:17:31;11.10;1.00
8402;DHT22;4238;48.404;9.498;2023-03-31T12:20:03;11.20;1.00
8402;DHT22;4238;48.404;9.498;2023-03-31T12:22:39;11.40;1.00
8402;DHT22;4238;48.404;9.498;2023-03-31T12:25:11;11.50;99.90
8402;DHT22;4238;48.404;9.498;2023-03-31T12:27:40;11.50;1.00
8402;DHT22;4238;48.404;9.498;2023-03-31T12:30:11;11.20;1.00
8402;DHT22;4238;48.404;9.498;2023-03-31T12:32:41;11.40;1.00
8402;DHT22;4238;48.404;9.498;2023-03-31T12:35:13;11.90;1.00
8402;DHT22;4238;48.404;9.498;2023-03-31T12:38:01;12.30;1.00
8402;DHT22;4238;48.404;9.498;2023-03-31T12:40:48;12.30;1.00
8402;DHT22;4238;48.404;9.498;2023-03-31T12:43:25;12.50;99.90
8402;DHT22;4238;48.404;9.498;2023-03-31T12:46:02;12.80;99.90
8402;DHT22;4238;48.404;9.498;2023-03-31T12:48:54;13.20;99.90
8402;DHT22;4238;48.404;9.498;2023-03-31T12:51:37;13.60;1.00
8402;DHT22;4238;48.404;9.498;2023-03-31T12:54:23;13.90;99.90
8402;DHT22;4238;48.404;9.498;2023-03-31T12:57:04;14.10;1.00
8402;DHT22;4238;48.404;9.498;2023-03-31T12:59:38;14.20;1.00
8402;DHT22;4238;48.404;9.498;2023-03-31T13:02:21;13.80;1.00
8402;DHT22;4238;48.404;9.498;2023-03-31T13:04:49;14.00;1.00
8402;DHT22;4238;48.404;9.498;2023-03-31T13:07:40;14.10;74.60
8402;DHT22;4238;48.404;9.498;2023-03-31T13:10:27;14.20;99.90
8402;DHT22;4238;48.404;9.498;2023-03-31T13:13:05;13.90;99.90
8402;DHT22;4238;48.404;9.498;2023-03-31T13:15:32;13.80;99.90
8402;DHT22;4238;48.404;9.498;2023-03-31T13:18:00;13.50;99.90
8402;DHT22;4238;48.404;9.498;2023-03-31T13:20:35;13.20;99.90
8402;DHT22;4238;48.404;9.498;2023-03-31T13:23:05;12.80;99.90
8402;DHT22;4238;48.404;9.498;2023-03-31T13:25:49;12.80;99.90
8402;DHT22;4238;48.404;9.498;2023-03-31T13:28:31;13.00;99.90
8402;DHT22;4238;48.404;9.498;2023-03-31T13:31:00;13.20;99.90
8402;DHT22;4238;48.404;9.498;2023-03-31T13:33:32;13.30;28.70
8402;DHT22;4238;48.404;9.498;2023-03-31T13:45:45;13.70;1.00
8402;DHT22;4238;48.404;9.498;2023-03-31T13:48:23;14.10;1.00
8402;DHT22;4238;48.404;9.498;2023-03-31T13:51:13;14.40;1.00
8402;DHT22;4238;48.404;9.498;2023-03-31T13:54:02;14.30;99.90
8402;DHT22;4238;48.404;9.498;2023-03-31T13:56:51;14.10;99.90
8402;DHT22;4238;48.404;9.498;2023-03-31T14:00:00;13.60;99.90
8402;DHT22;4238;48.404;9.498;2023-03-31T14:05:29;12.60;99.90
8402;DHT22;4238;48.404;9.498;2023-03-31T14:07:58;12.20;99.90
8402;DHT22;4238;48.404;9.498;2023-03-31T14:10:29;12.00;99.90
8402;DHT22;4238;48.404;9.498;2023-03-31T14:13:08;11.80;1.00
8402;DHT22;4238;48.404;9.498;2023-03-31T14:15:40;11.50;1.00
8402;DHT22;4238;48.404;9.498;2023-03-31T14:18:12;11.00;99.90
8402;DHT22;4238;48.404;9.498;2023-03-31T14:20:48;10.50;1.00
8402;DHT22;4238;48.404;9.498;2023-03-31T14:23:26;10.10;1.00
8402;DHT22;4238;48.404;9.498;2023-03-31T14:26:01;9.80;1.00
8402;DHT22;4238;48.404;9.498;2023-03-31T14:28:49;9.80;31.50
8402;DHT22;4238;48.404;9.498;2023-03-31T14:31:27;9.90;37.00
8402;DHT22;4238;48.404;9.498;2023-03-31T14:34:25;9.90;60.40
8402;DHT22;4238;48.404;9.498;2023-03-31T14:36:59;10.00;36.90
8402;DHT22;4238;48.404;9.498;2023-03-31T14:39:30;10.10;25.50
8402;DHT22;4238;48.404;9.498;2023-03-31T14:42:01;10.00;25.60
8402;DHT22;4238;48.404;9.498;2023-03-31T14:44:29;9.80;33.90
8402;DHT22;4238;48.404;9.498;2023-03-31T14:46:57;9.80;39.30
8402;DHT22;4238;48.404;9.498;2023-03-31T14:49:26;9.70;39.00
8402;DHT22;4238;48.404;9.498;2023-03-31T14:51:54;9.70;45.30
8402;DHT22;4238;48.404;9.498;2023-03-31T14:54:24;9.70;38.00
8402;DHT22;4238;48.404;9.498;2023-03-31T14:56:53;9.70;31.30
8402;DHT22;4238;48.404;9.498;2023-03-31T14:59:24;9.60;25.90
8402;DHT22;4238;48.404;9.498;2023-03-31T15:01:52;9.40;17.90
8402;DHT22;4238;48.404;9.498;2023-03-31T15:04:22;9.20;18.50
8402;DHT22;4238;48.404;9.498;2023-03-31T15:06:51;9.20;26.60
8402;DHT22;4238;48.404;9.498;2023-03-31T15:09:20;9.20;25.00
8402;DHT22;4238;48.404;9.498;2023-03-31T15:11:53;9.20;34.20
8402;DHT22;4238;48.404;9.498;2023-03-31T15:14:21;9.20;34.50
8402;DHT22;4238;48.404;9.498;2023-03-31T15:16:49;9.10;22.50
8402;DHT22;4238;48.404;9.498;2023-03-31T15:19:18;9.20;29.30
8402;DHT22;4238;48.404;9.498;2023-03-31T15:21:53;9.30;26.90
8402;DHT22;4238;48.404;9.498;2023-03-31T15:24:20;9.40;15.10
8402;DHT22;4238;48.404;9.498;2023-03-31T15:26:54;9.30;10.40
8402;DHT22;4238;48.404;9.498;2023-03-31T15:29:25;9.30;15.70
8402;DHT22;4238;48.404;9.498;2023-03-31T15:31:57;9.20;5.80
8402;DHT22;4238;48.404;9.498;2023-03-31T15:34:26;9.10;6.60
8402;DHT22;4238;48.404;9.498;2023-03-31T15:36:56;9.30;10.60
8402;DHT22;4238;48.404;9.498;2023-03-31T15:39:24;9.50;1.00
8402;DHT22;4238;48.404;9.498;2023-03-31T15:41:52;9.60;1.00
8402;DHT22;4238;48.404;9.498;2023-03-31T15:44:35;9.70;1.00
8402;DHT22;4238;48.404;9.498;2023-03-31T15:47:15;10.00;1.00
8402;DHT22;4238;48.404;9.498;2023-03-31T15:49:51;9.90;1.00
8402;DHT22;4238;48.404;9.498;2023-03-31T15:52:33;10.10;1.00
8402;DHT22;4238;48.404;9.498;2023-03-31T15:55:04;10.00;1.00
8402;DHT22;4238;48.404;9.498;2023-03-31T15:57:48;10.10;1.00
8402;DHT22;4238;48.404;9.498;2023-03-31T16:00:42;10.00;1.00
8402;DHT22;4238;48.404;9.498;2023-03-31T16:03:15;9.90;1.00
8402;DHT22;4238;48.404;9.498;2023-03-31T16:05:49;9.70;1.00
8402;DHT22;4238;48.404;9.498;2023-03-31T16:08:23;9.60;1.00
8402;DHT22;4238;48.404;9.498;2023-03-31T16:10:56;9.50;1.00
8402;DHT22;4238;48.404;9.498;2023-03-31T16:13:26;9.40;1.00
8402;DHT22;4238;48.404;9.498;2023-03-31T16:15:54;9.40;1.00
8402;DHT22;4238;48.404;9.498;2023-03-31T16:18:26;9.30;1.00
8402;DHT22;4238;48.404;9.498;2023-03-31T16:20:57;9.30;1.00
8402;DHT22;4238;48.404;9.498;2023-03-31T16:23:29;9.20;1.00
8402;DHT22;4238;48.404;9.498;2023-03-31T16:25:57;9.30;1.00
8402;DHT22;4238;48.404;9.498;2023-03-31T16:28:25;9.30;1.00
8402;DHT22;4238;48.404;9.498;2023-03-31T16:30:53;9.30;1.00
8402;DHT22;4238;48.404;9.498;2023-03-31T16:33:21;9.30;1.00
8402;DHT22;4238;48.404;9.498;2023-03-31T16:35:50;9.30;1.00
8402;DHT22;4238;48.404;9.498;2023-03-31T16:38:19;9.30;1.00
8402;DHT22;4238;48.404;9.498;2023-03-31T16:40:49;9.30;1.00
8402;DHT22;4238;48.404;9.498;2023-03-31T16:43:18;9.30;1.00
8402;DHT22;4238;48.404;9.498;2023-03-31T16:45:47;9.20;1.00
8402;DHT22;4238;48.404;9.498;2023-03-31T16:48:15;9.20;1.00
8402;DHT22;4238;48.404;9.498;2023-03-31T16:50:42;9.20;1.00
8402;DHT22;4238;48.404;9.498;2023-03-31T16:53:09;9.10;1.00
8402;DHT22;4238;48.404;9.498;2023-03-31T16:55:37;9.20;1.00
8402;DHT22;4238;48.404;9.498;2023-03-31T16:58:06;9.10;1.00
8402;DHT22;4238;48.404;9.498;2023-03-31T17:00:34;9.00;1.00
8402;DHT22;4238;48.404;9.498;2023-03-31T17:03:01;8.90;1.00
8402;DHT22;4238;48.404;9.498;2023-03-31T17:05:29;8.90;1.00
8402;DHT22;4238;48.404;9.498;2023-03-31T17:07:59;8.80;1.00
8402;DHT22;4238;48.404;9.498;2023-03-31T17:10:27;8.80;1.00
8402;DHT22;4238;48.404;9.498;2023-03-31T17:12:53;8.70;4.40
8402;DHT22;4238;48.404;9.498;2023-03-31T17:15:22;8.60;18.40
8402;DHT22;4238;48.404;9.498;2023-03-31T17:17:49;8.50;29.70
8402;DHT22;4238;48.404;9.498;2023-03-31T17:20:16;8.40;47.80